Muskoka Airport
CYQA : now visible

Airfield :











YOU CAN JOIN US ON...

 
LOGIN :

Register | Disclaimer

   EN    FR    IT 

 









Legend :    VFR   Marginal VFR   IFR   Intensive IFR   Very Intensive IFR
Visi :
Ceiling :
>= 8 km
>= 3000ft
5 to 8 km
1000 to 3000 ft
1500m to 5 km
500 to 1000 ft
800 to 1500m
200 to 500 ft
< 800m
< 200 ft
Symbols :   Thunderstorms  Fog  Heavy snow  Heavy precipitations  Wind > 20 kt






- Airport Elevation : 925 ft
- IATA code : YQA


CYQA - Muskoka

CURRENT METAR :
  • 041400Z AUTO 21009G15KT 9SM FEW032 M02/M07 A3006 RMK SLP197

EXPIRED METARs :
  • 041355Z AUTO 21011KT 9SM SCT032 M02/M07 A3006 RMK SLP196
  • 041325Z AUTO 21011G16KT 9SM -SN SCT026 BKN034 OVC040 M02/M07 A3007 RMK SLP201
  • 041300Z AUTO 22008KT 180V240 9SM OVC034 M02/M07 A3008 RMK SLP203
  • 041200Z AUTO 23007KT 180V250 8SM -SN SCT029 BKN035 OVC044 M02/M06 A3010 RMK SLP208

TAF TAF CYQA
Valid from the 04 at 13:00 until the 05 at 01:00 UTC


041240Z 0413/0501 22008KT P6SM -SHSN BKN030 OVC040
TEMPO 0413/0416 2 1/2SM -SHSN BKN015 OVC030
BECMG 0414/0416 22012G22KT
FM041600 22012G22KT P6SM BKN030
TEMPO 0416/0424 5SM -SHSN BKN020
FM050000 20010G20KT P6SM BKN030 OVC160 RMK FCST BASED ON AUTO OBS. NXT FCST BY 042000Z
CZYZ FIR / North America



MET'MAP, your aeronautical weather chart ! - Copyright ORBIFLY December 2007 - Disclaimer

ORBIFLY MET'MAP TEAM :

Programming & Development : Alexandra Zaïnal
Original concept : Baudouin d'Aumeries
Technical & hardware support : Manuel Goepfert
Assistance : Marc-Olivier Méhu




SOURCES & CREDITS :

   NOAA       Earth
Advisory